Time;durP1;ratioP1;P1;durP2;ratioP2;P2;SDS_P1;SDS_P2;PMS_P1;PMS_P2;Temp;Humidity;BMP_temperature;BMP_pressure;BME280_temperature;BME280_humidity;BME280_pressure;Samples;Min_cycle;Max_cycle;Signal;HPM_P1;HPM_P2
2022/06/23 00:00:57;;;;;;;10.53;2.63;;;18.40;99.90;;;;;;5090856;28;20526;-47
2022/06/23 00:03:27;;;;;;;5.27;2.53;;;18.50;99.90;;;;;;5090981;28;20443;-48
2022/06/23 00:05:57;;;;;;;5.93;2.47;;;18.50;99.90;;;;;;5090782;28;20922;-47
2022/06/23 00:08:25;;;;;;;7.73;2.50;;;18.50;99.90;;;;;;5091028;28;20465;-49
2022/06/23 00:10:55;;;;;;;5.63;3.10;;;18.50;99.90;;;;;;5091321;28;20443;-47
2022/06/23 00:13:27;;;;;;;4.20;2.43;;;18.50;99.90;;;;;;5091046;28;20932;-48
2022/06/23 00:15:56;;;;;;;7.03;2.57;;;18.30;99.90;;;;;;5091467;28;20886;-47
2022/06/23 00:18:26;;;;;;;5.40;2.67;;;18.40;99.90;;;;;;5091085;28;20521;-47
2022/06/23 00:20:57;;;;;;;4.73;2.83;;;18.40;99.90;;;;;;5094990;28;20486;-47
2022/06/23 00:23:26;;;;;;;5.80;2.87;;;18.40;99.90;;;;;;5095175;28;20443;-47
2022/06/23 00:25:59;;;;;;;4.50;2.30;;;18.30;99.90;;;;;;5094893;28;20479;-47
2022/06/23 00:28:30;;;;;;;6.00;2.43;;;18.30;99.90;;;;;;5094926;28;20471;-48
2022/06/23 00:30:59;;;;;;;3.30;2.13;;;18.40;99.90;;;;;;5094551;28;20725;-48
2022/06/23 00:33:30;;;;;;;7.30;3.00;;;18.40;99.90;;;;;;5094842;28;20482;-48
2022/06/23 00:35:58;;;;;;;7.00;3.27;;;18.20;99.90;;;;;;5095053;28;20439;-47
2022/06/23 00:38:31;;;;;;;4.50;2.60;;;18.20;99.90;;;;;;5094687;28;20497;-47
2022/06/23 00:41:00;;;;;;;5.50;2.13;;;18.10;99.90;;;;;;5094455;28;20443;-51
2022/06/23 00:43:30;;;;;;;8.87;3.50;;;17.70;99.90;;;;;;5094649;28;20447;-48
2022/06/23 00:46:05;;;;;;;7.03;2.50;;;17.60;99.90;;;;;;5094563;28;21046;-47
2022/06/23 00:48:38;;;;;;;3.30;2.00;;;17.40;99.90;;;;;;5094560;28;20497;-47
2022/06/23 00:51:10;;;;;;;4.67;2.93;;;17.50;99.90;;;;;;5094768;28;20443;-48
2022/06/23 00:53:43;;;;;;;3.70;2.20;;;17.60;99.90;;;;;;5094741;28;20531;-51
2022/06/23 00:56:23;;;;;;;4.27;2.57;;;17.70;99.90;;;;;;5094389;28;20443;-48
2022/06/23 00:58:57;;;;;;;4.80;2.33;;;17.80;99.90;;;;;;5094160;28;20828;-47
2022/06/23 01:01:31;;;;;;;6.90;2.47;;;17.90;99.90;;;;;;5094303;28;20995;-47
2022/06/23 01:04:04;;;;;;;6.67;2.10;;;17.90;99.90;;;;;;5094221;28;20841;-48
2022/06/23 01:06:39;;;;;;;6.97;2.40;;;17.70;99.90;;;;;;5094439;28;20485;-48
2022/06/23 01:09:19;;;;;;;6.60;3.97;;;17.80;99.90;;;;;;5094087;28;20547;-49
2022/06/23 01:11:51;;;;;;;3.43;2.37;;;17.90;99.90;;;;;;5094274;28;20475;-50
2022/06/23 01:14:29;;;;;;;7.40;2.27;;;17.90;99.90;;;;;;5093988;28;20443;-50
2022/06/23 01:17:03;;;;;;;8.13;2.20;;;17.90;99.90;;;;;;5094151;28;20526;-49
2022/06/23 01:20:01;;;;;;;5.70;2.20;;;18.00;99.90;;;;;;5093495;28;20463;-47
2022/06/23 01:22:41;;;;;;;3.30;1.90;;;18.10;99.90;;;;;;5093901;28;20530;-47
2022/06/23 01:25:47;;;;;;;6.77;2.80;;;18.10;99.90;;;;;;5093807;28;20439;-48
2022/06/23 01:28:18;;;;;;;4.50;2.50;;;18.10;99.90;;;;;;5011389;28;20553;-47
2022/06/23 01:30:49;;;;;;;3.47;2.10;;;18.10;99.90;;;;;;5074659;28;20524;-49
2022/06/23 01:33:25;;;;;;;6.93;2.90;;;18.20;99.90;;;;;;5094100;28;20560;-47
2022/06/23 01:36:00;;;;;;;4.43;2.17;;;18.20;99.90;;;;;;5093624;28;20434;-47
2022/06/23 01:38:34;;;;;;;6.30;3.37;;;18.20;99.90;;;;;;5093538;28;20454;-47
2022/06/23 01:41:09;;;;;;;6.47;2.30;;;18.30;99.90;;;;;;5093534;28;20463;-47
2022/06/23 01:43:41;;;;;;;4.00;2.50;;;18.30;99.90;;;;;;5093802;28;20435;-47
2022/06/23 01:46:16;;;;;;;3.07;2.40;;;18.30;99.90;;;;;;5093374;28;20524;-50
2022/06/23 01:48:53;;;;;;;3.80;2.60;;;18.30;99.90;;;;;;5093069;28;20489;-47
2022/06/23 01:51:24;;;;;;;3.07;2.13;;;18.40;99.90;;;;;;5093470;28;20500;-47
2022/06/23 01:53:52;;;;;;;4.10;2.43;;;18.30;99.90;;;;;;5093601;28;20447;-47
2022/06/23 01:56:26;;;;;;;6.00;2.83;;;18.30;99.90;;;;;;5093219;28;20490;-48
2022/06/23 01:59:03;;;;;;;3.83;2.40;;;18.10;99.90;;;;;;5093143;28;21026;-48
2022/06/23 02:01:42;;;;;;;5.43;2.70;;;17.90;99.90;;;;;;5093320;28;20467;-47
2022/06/23 02:04:15;;;;;;;3.17;1.97;;;17.60;99.90;;;;;;5092923;28;20850;-48
2022/06/23 02:06:50;;;;;;;6.20;2.43;;;17.50;99.90;;;;;;5093259;28;20546;-47
2022/06/23 02:09:24;;;;;;;6.70;2.03;;;17.40;99.90;;;;;;5092435;28;20459;-49
2022/06/23 02:11:53;;;;;;;4.10;2.53;;;17.50;99.90;;;;;;5092998;28;20439;-47
2022/06/23 02:14:46;;;;;;;4.90;2.43;;;17.60;99.90;;;;;;5092605;28;20906;-47
2022/06/23 02:17:26;;;;;;;6.70;2.77;;;17.70;99.90;;;;;;5085949;28;20458;-47
2022/06/23 02:19:55;;;;;;;5.13;2.43;;;17.80;99.90;;;;;;5092638;28;20459;-47
2022/06/23 02:22:28;;;;;;;4.23;2.73;;;17.90;99.90;;;;;;5093047;28;20475;-50
2022/06/23 02:25:00;;;;;;;4.17;2.13;;;17.90;99.90;;;;;;5093205;28;20455;-47
2022/06/23 02:27:33;;;;;;;3.33;2.10;;;17.90;99.90;;;;;;5092824;28;20484;-48
2022/06/23 02:30:04;;;;;;;3.67;1.87;;;17.90;99.90;;;;;;5091938;28;20533;-49
2022/06/23 02:32:55;;;;;;;6.97;2.23;;;17.90;99.90;;;;;;5092829;28;20498;-47
2022/06/23 02:35:28;;;;;;;3.40;1.90;;;17.90;99.90;;;;;;5092754;28;20484;-47
2022/06/23 02:38:00;;;;;;;6.57;2.10;;;17.80;99.90;;;;;;5092329;28;20879;-47
2022/06/23 02:40:33;;;;;;;4.47;1.73;;;17.80;99.90;;;;;;5092213;28;20447;-47
2022/06/23 02:43:05;;;;;;;3.87;1.97;;;17.80;99.90;;;;;;5092260;28;20439;-48
2022/06/23 02:45:58;;;;;;;6.83;2.00;;;17.80;99.90;;;;;;5092426;28;20534;-50
2022/06/23 02:48:49;;;;;;;5.30;1.90;;;17.70;99.90;;;;;;5092229;28;20459;-49
2022/06/23 02:51:35;;;;;;;4.13;1.80;;;17.80;99.90;;;;;;5092159;28;20443;-49
2022/06/23 02:54:21;;;;;;;10.73;3.20;;;17.80;99.90;;;;;;5092300;28;20475;-48
2022/06/23 02:57:07;;;;;;;6.00;2.80;;;17.80;99.90;;;;;;5092412;28;20891;-49
2022/06/23 02:59:40;;;;;;;2.70;1.70;;;17.70;99.90;;;;;;5091853;28;20495;-47
2022/06/23 03:02:14;;;;;;;5.00;2.30;;;17.80;99.90;;;;;;5092028;28;20880;-48
2022/06/23 03:04:45;;;;;;;7.63;2.40;;;17.80;99.90;;;;;;5091707;28;20951;-48
2022/06/23 03:07:18;;;;;;;4.33;2.50;;;17.70;99.90;;;;;;5092291;28;20561;-47
2022/06/23 03:09:48;;;;;;;5.67;2.37;;;17.70;99.90;;;;;;5091789;28;20554;-51
2022/06/23 03:12:19;;;;;;;3.53;1.90;;;17.70;99.90;;;;;;5091914;28;20447;-48
2022/06/23 03:14:53;;;;;;;3.80;2.23;;;17.60;99.90;;;;;;5091599;28;20465;-47
2022/06/23 03:17:26;;;;;;;5.77;2.60;;;17.60;99.90;;;;;;5091625;28;20928;-48
2022/06/23 03:20:02;;;;;;;5.00;1.77;;;17.60;99.90;;;;;;5091489;28;20596;-47
2022/06/23 03:22:35;;;;;;;4.53;1.77;;;17.60;99.90;;;;;;5091749;28;20471;-47
2022/06/23 03:25:08;;;;;;;6.03;2.70;;;17.60;99.90;;;;;;5091883;28;20869;-48
2022/06/23 03:27:44;;;;;;;4.17;2.20;;;17.70;99.90;;;;;;5091774;28;20555;-47
2022/06/23 03:30:20;;;;;;;5.73;3.10;;;17.70;99.90;;;;;;5116277;22;20553;-49
2022/06/23 03:32:53;;;;;;;6.00;2.57;;;17.70;99.90;;;;;;5051619;28;20502;-48
2022/06/23 03:35:23;;;;;;;5.33;2.33;;;17.80;99.90;;;;;;5051574;28;20487;-47
2022/06/23 03:38:01;;;;;;;3.70;1.60;;;17.80;99.90;;;;;;5051510;28;20872;-47
2022/06/23 03:43:23;;;;;;;3.80;2.03;;;17.50;99.90;;;;;;5051387;28;20417;-49
2022/06/23 03:45:55;;;;;;;4.00;2.20;;;17.30;99.90;;;;;;5051576;28;20434;-47
2022/06/23 03:48:29;;;;;;;7.10;1.83;;;17.30;99.90;;;;;;5051213;28;20481;-49
2022/06/23 03:51:00;;;;;;;4.37;1.83;;;17.40;99.90;;;;;;5050951;28;20536;-48
2022/06/23 03:53:32;;;;;;;3.53;2.10;;;17.40;99.90;;;;;;5051196;28;20450;-47
2022/06/23 03:56:03;;;;;;;4.33;2.00;;;17.40;99.90;;;;;;5055603;28;20437;-48
2022/06/23 03:58:40;;;;;;;4.77;1.87;;;17.40;99.90;;;;;;5055281;28;20762;-47
2022/06/23 04:01:18;;;;;;;6.57;3.23;;;17.40;99.90;;;;;;5055291;28;20926;-48
2022/06/23 04:03:50;;;;;;;2.47;2.27;;;17.30;99.90;;;;;;5055167;28;20953;-49
2022/06/23 04:06:24;;;;;;;5.10;2.03;;;17.40;99.90;;;;;;5054998;28;20483;-47
2022/06/23 04:08:59;;;;;;;3.20;1.80;;;17.50;99.90;;;;;;5055168;28;20507;-48
2022/06/23 04:11:46;;;;;;;4.80;2.67;;;17.60;99.90;;;;;;5055110;28;21020;-47
2022/06/23 04:14:22;;;;;;;5.00;2.83;;;17.60;99.90;;;;;;5054813;28;20933;-47
2022/06/23 04:16:53;;;;;;;6.40;2.40;;;17.60;99.90;;;;;;5055518;28;20581;-47
2022/06/23 04:19:26;;;;;;;7.20;2.83;;;17.60;99.90;;;;;;5054535;28;20460;-47
2022/06/23 04:22:01;;;;;;;4.20;2.07;;;17.50;99.90;;;;;;5055322;28;20785;-47
2022/06/23 04:24:28;;;;;;;7.73;3.80;;;17.50;99.90;;;;;;5054910;28;20472;-48
2022/06/23 04:27:04;;;;;;;6.30;2.53;;;17.40;99.90;;;;;;5055055;28;20472;-47
2022/06/23 04:29:36;;;;;;;6.13;2.73;;;17.30;99.90;;;;;;5054187;28;20469;-47
2022/06/23 04:32:08;;;;;;;5.47;2.30;;;17.30;99.90;;;;;;5054481;28;20445;-47
2022/06/23 04:34:43;;;;;;;4.73;2.63;;;17.40;99.90;;;;;;5054547;28;20528;-47
2022/06/23 04:37:23;;;;;;;6.90;2.37;;;17.50;99.90;;;;;;5054508;28;20477;-48
2022/06/23 04:39:57;;;;;;;3.60;2.27;;;17.60;99.90;;;;;;5054281;28;20897;-47
2022/06/23 04:42:27;;;;;;;2.97;2.17;;;17.60;99.90;;;;;;5054590;28;20471;-47
2022/06/23 04:44:57;;;;;;;4.20;2.47;;;17.70;99.90;;;;;;5054650;28;20799;-47
2022/06/23 04:47:29;;;;;;;6.43;2.70;;;17.70;99.90;;;;;;5054331;28;20903;-47
2022/06/23 04:50:03;;;;;;;7.30;2.50;;;17.80;99.90;;;;;;5054256;28;20465;-47
2022/06/23 04:52:33;;;;;;;7.50;3.37;;;17.80;99.90;;;;;;5054752;28;20473;-47
2022/06/23 04:55:07;;;;;;;5.90;3.20;;;17.90;99.90;;;;;;5054655;28;20480;-47
2022/06/23 04:57:43;;;;;;;5.93;2.53;;;17.80;99.90;;;;;;5054098;28;20465;-47
2022/06/23 05:00:21;;;;;;;8.53;3.87;;;17.90;99.90;;;;;;5054207;28;20504;-51
2022/06/23 05:02:52;;;;;;;3.33;2.93;;;18.00;99.90;;;;;;5054416;28;20496;-47
2022/06/23 05:05:25;;;;;;;4.03;2.80;;;17.70;99.90;;;;;;5054048;28;20528;-47
2022/06/23 05:07:56;;;;;;;3.30;2.40;;;17.60;99.90;;;;;;5054055;28;20568;-48
2022/06/23 05:10:26;;;;;;;4.73;2.40;;;17.60;99.90;;;;;;5053562;28;20548;-47
2022/06/23 05:12:56;;;;;;;5.30;2.43;;;17.60;99.90;;;;;;5054125;28;20437;-48
2022/06/23 05:15:28;;;;;;;3.93;2.80;;;17.70;99.90;;;;;;5053832;28;20441;-49
2022/06/23 05:17:59;;;;;;;4.27;2.63;;;17.70;99.90;;;;;;5054115;28;20437;-50
2022/06/23 05:20:35;;;;;;;4.50;2.20;;;17.70;99.90;;;;;;5053794;28;20469;-47
2022/06/23 05:23:03;;;;;;;3.90;2.33;;;17.80;99.90;;;;;;5053830;28;20483;-47
2022/06/23 05:25:38;;;;;;;4.33;3.30;;;17.50;99.90;;;;;;5053632;28;20441;-48
2022/06/23 05:28:09;;;;;;;14.07;2.93;;;17.50;99.90;;;;;;5053990;28;20487;-48
2022/06/23 05:30:40;;;;;;;4.57;2.30;;;17.60;99.90;;;;;;5052953;28;20469;-49
2022/06/23 05:33:15;;;;;;;6.50;2.20;;;17.60;99.90;;;;;;5053639;28;20486;-47
2022/06/23 05:35:47;;;;;;;4.27;2.53;;;17.70;99.90;;;;;;5053717;28;20440;-50
2022/06/23 05:38:25;;;;;;;3.17;2.30;;;17.70;99.90;;;;;;5053220;28;20521;-53
2022/06/23 05:40:56;;;;;;;2.47;1.90;;;17.70;99.90;;;;;;5053740;28;20476;-49
2022/06/23 05:43:23;;;;;;;3.40;2.17;;;17.80;99.90;;;;;;5053561;28;20480;-47
2022/06/23 05:45:54;;;;;;;6.27;2.77;;;17.80;99.90;;;;;;5053273;28;21069;-50
2022/06/23 05:48:25;;;;;;;6.30;2.10;;;17.80;99.90;;;;;;5053099;28;20513;-47
2022/06/23 05:50:57;;;;;;;3.13;2.57;;;17.90;99.90;;;;;;5052934;28;20483;-47
2022/06/23 05:53:31;;;;;;;3.77;2.17;;;17.90;99.90;;;;;;5053430;28;20526;-49
2022/06/23 05:56:01;;;;;;;6.30;2.00;;;17.80;99.90;;;;;;5053578;28;20484;-47
2022/06/23 05:58:35;;;;;;;5.97;2.03;;;17.80;99.90;;;;;;5052892;28;21017;-47
2022/06/23 06:01:11;;;;;;;6.80;2.50;;;17.80;99.90;;;;;;5052869;28;20445;-49
2022/06/23 06:03:43;;;;;;;3.97;2.40;;;17.70;99.90;;;;;;5053381;28;20566;-49
2022/06/23 06:06:12;;;;;;;6.13;2.20;;;17.90;99.90;;;;;;5052802;28;20536;-47
2022/06/23 06:11:24;;;;;;;3.33;1.60;;;19.10;99.90;;;;;;5052631;28;20433;-51
2022/06/23 06:13:52;;;;;;;2.83;1.70;;;19.80;99.90;;;;;;5052499;28;20995;-47
2022/06/23 06:16:19;;;;;;;5.47;2.47;;;20.50;99.90;;;;;;5052475;28;20480;-51
2022/06/23 06:18:47;;;;;;;6.53;2.20;;;21.20;99.90;;;;;;5052183;28;20540;-50
2022/06/23 06:21:18;;;;;;;9.20;2.13;;;21.60;99.90;;;;;;5052871;28;20444;-47
2022/06/23 06:23:51;;;;;;;3.10;1.97;;;21.00;99.90;;;;;;5052564;28;20441;-48
2022/06/23 06:26:21;;;;;;;4.93;1.90;;;20.70;99.90;;;;;;5052526;28;20469;-48
2022/06/23 06:28:48;;;;;;;4.00;1.80;;;20.70;99.90;;;;;;5052249;28;21012;-47
2022/06/23 06:31:22;;;;;;;4.03;2.30;;;20.60;99.90;;;;;;5052599;28;20469;-47
2022/06/23 06:33:57;;;;;;;6.70;1.80;;;20.50;99.90;;;;;;5052381;28;20806;-47
2022/06/23 06:36:32;;;;;;;5.00;2.10;;;20.30;99.90;;;;;;5052510;28;20432;-47
2022/06/23 06:39:04;;;;;;;5.37;2.90;;;20.10;99.90;;;;;;5052164;28;20452;-50
2022/06/23 06:41:32;;;;;;;6.03;2.23;;;20.00;99.90;;;;;;5052482;28;20477;-47
2022/06/23 06:44:00;;;;;;;8.00;2.00;;;20.00;99.90;;;;;;5052246;28;20477;-47
2022/06/23 06:46:27;;;;;;;4.50;2.27;;;19.90;99.90;;;;;;5052556;28;20899;-47
2022/06/23 06:48:54;;;;;;;6.03;2.07;;;19.90;99.90;;;;;;5051833;28;20558;-50
2022/06/23 06:51:24;;;;;;;6.53;2.37;;;19.70;99.90;;;;;;5052317;28;20499;-47
2022/06/23 06:53:56;;;;;;;6.97;2.90;;;19.40;99.90;;;;;;5052054;28;20480;-49
2022/06/23 06:56:29;;;;;;;6.40;2.30;;;19.40;99.90;;;;;;5052412;28;20477;-49
2022/06/23 06:59:02;;;;;;;5.43;2.13;;;19.30;99.90;;;;;;5051705;28;20462;-48
2022/06/23 07:01:33;;;;;;;4.03;2.33;;;19.30;99.90;;;;;;5052221;28;20539;-49
2022/06/23 07:04:01;;;;;;;4.00;2.20;;;19.30;99.90;;;;;;5051879;28;20446;-47
2022/06/23 07:06:34;;;;;;;4.67;2.17;;;19.40;99.90;;;;;;5051380;28;20926;-48
2022/06/23 07:09:08;;;;;;;4.20;1.30;;;19.40;99.90;;;;;;5051345;28;20858;-47
2022/06/23 07:11:45;;;;;;;6.60;2.03;;;19.40;99.90;;;;;;5051768;28;20444;-47
2022/06/23 07:14:17;;;;;;;6.60;2.20;;;19.60;99.90;;;;;;5051368;28;20491;-50
2022/06/23 07:16:56;;;;;;;4.53;2.33;;;19.80;99.90;;;;;;5051911;28;20477;-49
2022/06/23 07:19:30;;;;;;;3.77;2.03;;;19.90;99.90;;;;;;5051091;28;20457;-48
2022/06/23 07:22:01;;;;;;;6.23;3.10;;;20.30;99.90;;;;;;5051655;28;21061;-48
2022/06/23 07:24:36;;;;;;;4.17;1.97;;;20.70;99.90;;;;;;5051545;28;20985;-47
2022/06/23 07:27:06;;;;;;;7.67;2.47;;;20.70;99.90;;;;;;5051368;28;20888;-47
2022/06/23 07:29:41;;;;;;;4.90;2.33;;;20.80;99.90;;;;;;5049952;28;20520;-47
2022/06/23 07:32:15;;;;;;;7.80;2.57;;;20.80;99.90;;;;;;5051181;28;20879;-48
2022/06/23 07:34:48;;;;;;;3.00;2.30;;;20.90;99.90;;;;;;5051881;28;20488;-48
2022/06/23 07:37:23;;;;;;;4.23;2.60;;;21.00;99.90;;;;;;5051434;28;20441;-47
2022/06/23 07:39:58;;;;;;;4.40;2.50;;;21.10;99.90;;;;;;5051122;28;20882;-48
2022/06/23 07:42:40;;;;;;;4.00;2.73;;;21.20;99.90;;;;;;5051264;28;20449;-48
2022/06/23 07:45:13;;;;;;;5.80;2.30;;;21.40;99.90;;;;;;5051554;28;20476;-49
2022/06/23 07:47:40;;;;;;;4.63;2.57;;;21.50;99.90;;;;;;5051083;28;20524;-51
2022/06/23 07:50:08;;;;;;;4.23;2.60;;;21.40;99.90;;;;;;5050996;28;20461;-48
2022/06/23 07:52:35;;;;;;;2.30;2.00;;;21.60;99.90;;;;;;5051108;28;20471;-50
2022/06/23 07:55:04;;;;;;;3.00;2.23;;;21.70;99.90;;;;;;5051590;28;20472;-47
2022/06/23 07:57:33;;;;;;;9.70;2.73;;;21.80;99.90;;;;;;5051424;28;20449;-50
2022/06/23 08:00:02;;;;;;;7.70;2.80;;;21.80;99.90;;;;;;5051031;28;20461;-48
2022/06/23 08:02:36;;;;;;;4.30;2.40;;;21.80;99.90;;;;;;5051305;28;20473;-48
2022/06/23 08:05:07;;;;;;;6.87;2.40;;;21.70;99.90;;;;;;5050985;28;20441;-47
2022/06/23 08:07:36;;;;;;;4.73;2.57;;;21.60;99.90;;;;;;5051073;28;20449;-47
2022/06/23 08:10:09;;;;;;;5.07;2.50;;;21.60;99.90;;;;;;5050650;28;20480;-47
2022/06/23 08:12:55;;;;;;;7.33;3.00;;;21.70;99.90;;;;;;5051441;28;20475;-48
2022/06/23 08:18:26;;;;;;;5.50;2.70;;;22.10;99.90;;;;;;5050964;28;20420;-48
2022/06/23 08:21:00;;;;;;;6.17;3.13;;;22.00;99.90;;;;;;5050476;28;20453;-47
2022/06/23 08:23:29;;;;;;;5.67;2.80;;;22.00;99.90;;;;;;5050860;28;20445;-48
2022/06/23 08:25:58;;;;;;;5.10;2.27;;;21.90;99.90;;;;;;5051168;28;20526;-50
2022/06/23 08:28:25;;;;;;;4.70;2.37;;;21.90;99.90;;;;;;5050817;28;20516;-47
2022/06/23 08:30:52;;;;;;;4.53;2.50;;;22.10;99.90;;;;;;5050428;28;20492;-47
2022/06/23 08:33:19;;;;;;;7.00;2.87;;;22.30;99.90;;;;;;5050730;28;20524;-50
2022/06/23 08:35:51;;;;;;;6.57;3.27;;;22.50;99.90;;;;;;5050132;28;20528;-48
2022/06/23 08:38:21;;;;;;;5.53;3.27;;;22.50;99.90;;;;;;5034195;28;20839;-47
2022/06/23 08:41:18;;;;;;;7.23;2.07;;;22.70;99.90;;;;;;5032879;28;20499;-48
2022/06/23 08:43:51;;;;;;;4.30;2.80;;;22.50;99.90;;;;;;5032987;28;20454;-47
2022/06/23 08:46:25;;;;;;;5.60;2.40;;;22.40;99.90;;;;;;5034476;28;20525;-49
2022/06/23 08:49:00;;;;;;;9.40;2.87;;;22.30;99.90;;;;;;5033961;28;20523;-48
2022/06/23 08:51:37;;;;;;;8.50;2.47;;;22.20;99.90;;;;;;5033953;28;20445;-47
2022/06/23 08:54:13;;;;;;;4.10;2.60;;;22.20;99.90;;;;;;5034191;28;20445;-48
2022/06/23 08:56:49;;;;;;;6.23;2.70;;;22.30;99.90;;;;;;5032997;28;20511;-49
2022/06/23 08:59:23;;;;;;;4.63;2.63;;;22.30;99.90;;;;;;5031566;28;20567;-48
2022/06/23 09:01:59;;;;;;;5.10;2.50;;;22.40;99.90;;;;;;5032732;28;20477;-49
2022/06/23 09:04:39;;;;;;;6.33;2.70;;;22.30;99.90;;;;;;5033284;28;20537;-47
2022/06/23 09:07:14;;;;;;;8.70;3.17;;;22.50;99.90;;;;;;5033510;28;20442;-47
2022/06/23 09:09:50;;;;;;;5.87;2.23;;;22.60;99.90;;;;;;5033852;28;20517;-51
2022/06/23 09:12:29;;;;;;;8.00;3.20;;;22.70;99.90;;;;;;5034148;28;20533;-50
2022/06/23 09:15:25;;;;;;;7.43;3.10;;;23.00;99.90;;;;;;5033776;28;20474;-47
2022/06/23 09:18:32;;;;;;;6.20;3.10;;;23.30;99.90;;;;;;5031789;28;20891;-48
2022/06/23 09:21:14;;;;;;;6.40;2.40;;;23.60;99.90;;;;;;5016629;28;20584;-47
2022/06/23 09:24:29;;;;;;;6.43;3.00;;;23.70;99.90;;;;;;5033653;28;20513;-48
2022/06/23 09:26:59;;;;;;;6.20;3.20;;;23.80;99.90;;;;;;4970514;28;20532;-48
2022/06/23 09:29:45;;;;;;;5.10;2.43;;;23.80;99.90;;;;;;5089460;22;20571;-50
2022/06/23 09:32:23;;;;;;;5.83;2.30;;;23.70;99.90;;;;;;5093791;28;20443;-49
2022/06/23 09:35:11;;;;;;;8.10;2.87;;;23.70;99.90;;;;;;5093377;28;20443;-48
2022/06/23 09:38:01;;;;;;;4.90;2.53;;;23.60;99.90;;;;;;5093298;28;20946;-48
2022/06/23 09:40:41;;;;;;;6.40;2.90;;;23.70;99.90;;;;;;5093281;28;20877;-48
2022/06/23 09:43:48;;;;;;;3.80;2.57;;;23.80;99.90;;;;;;5093985;28;20864;-50
2022/06/23 09:46:32;;;;;;;4.87;2.20;;;23.90;99.90;;;;;;5093599;28;20813;-49
2022/06/23 09:49:17;;;;;;;5.30;2.70;;;24.10;99.90;;;;;;5093149;28;20521;-48
2022/06/23 09:52:26;;;;;;;5.80;2.50;;;24.10;99.90;;;;;;5092662;28;20445;-48
2022/06/23 09:55:34;;;;;;;4.83;2.60;;;24.10;99.90;;;;;;5045455;28;20905;-49
2022/06/23 09:58:24;;;;;;;4.23;2.10;;;24.10;99.90;;;;;;5093111;28;20567;-52
2022/06/23 10:01:04;;;;;;;5.63;2.07;;;24.30;99.90;;;;;;5093114;28;20492;-48
2022/06/23 10:03:50;;;;;;;3.50;1.90;;;24.40;99.90;;;;;;5093334;28;20526;-48
2022/06/23 10:06:49;;;;;;;5.77;2.10;;;24.50;99.90;;;;;;5092294;28;20790;-52
2022/06/23 10:09:30;;;;;;;3.67;2.07;;;24.50;99.90;;;;;;5091256;28;20562;-48
2022/06/23 10:12:22;;;;;;;4.63;2.20;;;24.50;99.90;;;;;;5091588;28;20435;-48
2022/06/23 10:15:02;;;;;;;5.10;2.10;;;24.60;99.90;;;;;;5091608;28;20469;-48
2022/06/23 10:17:55;;;;;;;5.77;1.67;;;24.70;99.90;;;;;;5091585;28;20482;-51
2022/06/23 10:20:44;;;;;;;3.93;2.30;;;24.60;99.90;;;;;;5091008;28;20491;-50
2022/06/23 10:23:38;;;;;;;5.40;1.97;;;24.70;99.90;;;;;;5092816;28;20468;-48
2022/06/23 10:26:33;;;;;;;6.00;2.20;;;24.60;99.90;;;;;;5092799;28;20920;-48
2022/06/23 10:29:14;;;;;;;5.17;1.80;;;24.60;99.90;;;;;;5092095;28;20563;-47
2022/06/23 10:32:04;;;;;;;3.77;1.50;;;24.80;99.90;;;;;;5091098;28;20435;-48
2022/06/23 10:34:49;;;;;;;4.77;2.00;;;24.90;99.90;;;;;;5077569;28;20451;-48
2022/06/23 10:37:29;;;;;;;4.07;2.40;;;24.80;99.90;;;;;;5090621;28;20450;-49
2022/06/23 10:40:29;;;;;;;3.80;2.20;;;24.80;99.90;;;;;;5087447;28;20860;-48
2022/06/23 10:43:08;;;;;;;4.83;2.13;;;24.80;99.90;;;;;;5039858;28;20468;-49
2022/06/23 10:45:43;;;;;;;3.70;2.20;;;24.80;99.90;;;;;;5081102;28;20539;-50
2022/06/23 10:48:40;;;;;;;4.33;2.40;;;24.90;99.90;;;;;;5074971;28;20440;-48
2022/06/23 10:51:25;;;;;;;4.83;2.50;;;24.90;99.90;;;;;;5072088;28;20453;-48
2022/06/23 10:54:12;;;;;;;4.77;2.40;;;25.00;99.90;;;;;;5072063;28;20539;-49
2022/06/23 10:57:02;;;;;;;5.83;2.57;;;25.00;99.90;;;;;;5071967;28;20448;-49
2022/06/23 10:59:41;;;;;;;2.70;2.20;;;25.00;99.90;;;;;;5071256;28;20457;-48
2022/06/23 11:02:36;;;;;;;4.80;2.27;;;25.00;99.90;;;;;;5072165;28;20444;-48
2022/06/23 11:05:47;;;;;;;4.20;2.10;;;25.00;99.90;;;;;;5070868;28;20476;-50
2022/06/23 11:08:28;;;;;;;3.60;2.00;;;25.00;99.90;;;;;;5061990;28;20991;-49
2022/06/23 11:11:12;;;;;;;2.73;1.83;;;25.00;99.90;;;;;;5071036;28;20542;-49
2022/06/23 11:13:49;;;;;;;6.10;1.93;;;25.10;99.90;;;;;;5071720;28;20472;-50
2022/06/23 11:16:23;;;;;;;4.23;2.10;;;25.00;99.90;;;;;;5071465;28;20816;-49
2022/06/23 11:19:00;;;;;;;3.83;2.00;;;25.00;99.90;;;;;;5071328;28;20471;-48
2022/06/23 11:21:40;;;;;;;4.73;1.83;;;25.10;99.90;;;;;;5071930;28;20444;-51
2022/06/23 11:24:17;;;;;;;3.20;1.50;;;25.20;99.90;;;;;;5071687;28;20441;-48
2022/06/23 11:26:58;;;;;;;2.73;1.67;;;25.20;99.90;;;;;;5071750;28;20444;-49
2022/06/23 11:29:58;;;;;;;3.70;1.63;;;25.30;99.90;;;;;;5071219;28;20483;-48
2022/06/23 11:32:39;;;;;;;3.23;1.97;;;25.30;99.90;;;;;;5071538;28;20855;-48
2022/06/23 11:35:48;;;;;;;4.17;1.87;;;25.40;99.90;;;;;;5071495;28;20949;-48
2022/06/23 11:38:47;;;;;;;4.63;1.87;;;25.40;99.90;;;;;;4989607;28;20448;-47
2022/06/23 11:41:34;;;;;;;3.80;2.23;;;25.40;99.90;;;;;;5071270;28;20457;-48
2022/06/23 11:44:20;;;;;;;3.80;2.07;;;25.40;99.90;;;;;;5071103;28;20440;-50
2022/06/23 11:46:55;;;;;;;2.87;2.53;;;25.50;99.90;;;;;;5071334;28;20825;-49
2022/06/23 11:49:35;;;;;;;3.63;1.87;;;25.60;99.90;;;;;;5071109;28;20486;-48
2022/06/23 11:52:11;;;;;;;4.17;1.80;;;25.60;99.90;;;;;;5071500;28;20440;-49
2022/06/23 11:55:01;;;;;;;3.27;1.70;;;25.70;99.90;;;;;;5071409;28;20450;-49
2022/06/23 11:57:53;;;;;;;6.03;1.90;;;25.70;99.90;;;;;;5071073;28;20498;-50
2022/06/23 12:00:32;;;;;;;4.73;2.00;;;25.70;99.90;;;;;;5070756;28;20544;-50
2022/06/23 12:03:12;;;;;;;2.20;2.00;;;25.70;99.90;;;;;;5070680;28;20828;-47
2022/06/23 12:05:45;;;;;;;3.10;1.70;;;25.70;99.90;;;;;;5070810;28;20444;-47
2022/06/23 12:08:30;;;;;;;3.60;1.80;;;25.90;99.90;;;;;;5071159;28;20441;-48
2022/06/23 12:10:57;;;;;;;4.00;1.93;;;25.90;99.90;;;;;;5071232;28;20480;-48
2022/06/23 12:13:25;;;;;;;5.70;2.33;;;26.00;99.90;;;;;;5071247;28;20436;-48
2022/06/23 12:15:55;;;;;;;3.80;2.27;;;26.10;99.90;;;;;;5073956;28;20472;-48
2022/06/23 12:18:27;;;;;;;3.73;1.50;;;26.10;99.90;;;;;;5074701;28;20444;-48
2022/06/23 12:21:00;;;;;;;5.03;1.90;;;26.10;99.90;;;;;;5074476;28;20452;-49
2022/06/23 12:23:34;;;;;;;2.87;1.77;;;26.20;99.90;;;;;;5075125;28;20447;-50
2022/06/23 12:26:10;;;;;;;2.80;1.60;;;26.20;99.90;;;;;;5074901;28;20984;-48
2022/06/23 12:28:41;;;;;;;5.50;2.00;;;26.30;99.90;;;;;;5074822;28;20471;-48
2022/06/23 12:31:21;;;;;;;5.00;1.97;;;26.30;99.90;;;;;;5074406;28;20484;-50
2022/06/23 12:33:56;;;;;;;3.67;1.97;;;26.40;99.90;;;;;;5075061;28;20444;-51
2022/06/23 12:36:29;;;;;;;5.83;2.23;;;26.50;99.90;;;;;;5074478;28;20528;-49
2022/06/23 12:39:00;;;;;;;4.00;1.70;;;26.50;99.90;;;;;;5073655;28;20497;-47
2022/06/23 12:41:31;;;;;;;3.47;1.80;;;26.60;99.90;;;;;;5074798;28;20440;-51
2022/06/23 12:44:04;;;;;;;4.43;1.93;;;26.60;99.90;;;;;;5074404;28;20491;-47
2022/06/23 12:46:43;;;;;;;2.33;1.83;;;26.60;99.90;;;;;;5074624;28;20435;-47
2022/06/23 12:49:33;;;;;;;3.20;2.03;;;26.70;99.90;;;;;;5074421;28;20497;-47
2022/06/23 12:52:16;;;;;;;3.50;1.97;;;26.80;99.90;;;;;;5061971;28;20480;-48
2022/06/23 12:55:14;;;;;;;5.10;1.60;;;26.80;99.90;;;;;;5074419;28;20432;-47
2022/06/23 12:58:10;;;;;;;4.60;2.00;;;26.70;99.90;;;;;;5074078;28;20432;-48
2022/06/23 13:00:57;;;;;;;3.80;1.47;;;26.70;99.90;;;;;;5074270;28;20532;-48
2022/06/23 13:03:31;;;;;;;5.90;1.77;;;26.80;99.90;;;;;;5074274;28;20436;-49
2022/06/23 13:06:11;;;;;;;3.63;1.70;;;26.80;99.90;;;;;;5073907;28;21053;-50
2022/06/23 13:08:43;;;;;;;4.70;1.70;;;26.90;99.90;;;;;;5072532;28;20956;-50
2022/06/23 13:11:18;;;;;;;3.17;1.23;;;26.90;99.90;;;;;;5071211;28;20568;-49
2022/06/23 13:13:50;;;;;;;3.97;2.07;;;26.90;99.90;;;;;;5071990;28;21013;-48
2022/06/23 13:16:21;;;;;;;6.83;2.77;;;27.00;99.90;;;;;;5072548;28;20471;-49
2022/06/23 13:18:59;;;;;;;2.80;1.60;;;27.10;99.90;;;;;;5071898;28;20472;-49
2022/06/23 13:21:30;;;;;;;3.87;2.33;;;27.00;99.90;;;;;;5072416;28;20432;-49
2022/06/23 13:24:02;;;;;;;5.73;2.50;;;27.00;99.90;;;;;;5073151;28;20441;-47
2022/06/23 13:26:33;;;;;;;7.87;3.60;;;27.00;99.90;;;;;;5072405;28;20481;-48
2022/06/23 13:29:06;;;;;;;3.87;2.13;;;27.10;99.90;;;;;;5073400;28;20451;-48
2022/06/23 13:31:40;;;;;;;4.03;2.53;;;27.10;99.90;;;;;;5074117;28;20507;-48
2022/06/23 13:34:16;;;;;;;5.30;2.10;;;27.10;99.90;;;;;;5073626;28;20471;-48
2022/06/23 13:36:46;;;;;;;2.90;1.77;;;27.10;99.90;;;;;;5073573;28;20441;-48
2022/06/23 13:39:22;;;;;;;7.40;2.17;;;27.20;99.90;;;;;;5073157;28;20464;-48
2022/06/23 13:41:55;;;;;;;10.53;3.70;;;27.20;99.90;;;;;;5073084;28;20456;-49